Time;durP1;ratioP1;P1;durP2;ratioP2;P2;SDS_P1;SDS_P2;PMS_P1;PMS_P2;Temp;Humidity;BMP_temperature;BMP_pressure;BME280_temperature;BME280_humidity;BME280_pressure;Samples;Min_cycle;Max_cycle;Signal;HPM_P1;HPM_P2
2020/12/24 00:01:21;;;;;;;0.52;0.40;;;;;;;;;;5092856;28;20055;-68
2020/12/24 00:03:47;;;;;;;1.25;1.08;;;;;;;;;;5091971;28;20031;-68
2020/12/24 00:06:13;;;;;;;0.65;0.30;;;;;;;;;;5091978;28;20119;-68
2020/12/24 00:08:39;;;;;;;1.17;0.40;;;;;;;;;;5092054;28;20493;-68
2020/12/24 00:11:08;;;;;;;0.70;0.50;;;;;;;;;;5092253;28;20044;-68
2020/12/24 00:13:34;;;;;;;1.00;0.60;;;;;;;;;;5092170;28;20035;-68
2020/12/24 00:16:00;;;;;;;0.20;0.20;;;;;;;;;;5091770;28;20489;-68
2020/12/24 00:18:26;;;;;;;0.20;0.20;;;;;;;;;;5075306;28;20056;-68
2020/12/24 00:20:53;;;;;;;0.47;0.32;;;;;;;;;;5071385;28;20039;-68
2020/12/24 00:23:19;;;;;;;0.20;0.20;;;;;;;;;;5071775;28;20032;-68
2020/12/24 00:25:45;;;;;;;0.47;0.32;;;;;;;;;;5070785;28;20423;-68
2020/12/24 00:28:11;;;;;;;0.30;0.30;;;;;;;;;;5071255;28;20106;-68
2020/12/24 00:30:40;;;;;;;0.85;0.40;;;;;;;;;;5071641;28;20024;-68
2020/12/24 00:33:07;;;;;;;0.57;0.57;;;;;;;;;;5071217;28;20036;-68
2020/12/24 00:35:33;;;;;;;0.30;0.30;;;;;;;;;;5071149;28;20181;-68
2020/12/24 00:37:59;;;;;;;0.70;0.52;;;;;;;;;;5071205;28;20459;-68
2020/12/24 00:40:27;;;;;;;1.55;0.77;;;;;;;;;;5071828;28;20078;-68
2020/12/24 00:42:53;;;;;;;0.75;0.25;;;;;;;;;;5070806;28;20056;-68
2020/12/24 00:45:19;;;;;;;0.25;0.25;;;;;;;;;;5071723;28;20078;-68
2020/12/24 00:47:45;;;;;;;1.85;0.38;;;;;;;;;;5077455;28;20116;-68
2020/12/24 00:50:11;;;;;;;0.38;0.30;;;;;;;;;;5091642;28;20424;-68
2020/12/24 00:52:37;;;;;;;0.40;0.40;;;;;;;;;;5091617;28;20032;-68
2020/12/24 00:55:04;;;;;;;0.40;0.38;;;;;;;;;;5091302;28;20588;-68
2020/12/24 00:57:30;;;;;;;1.48;0.82;;;;;;;;;;5091770;28;20096;-68
2020/12/24 00:59:56;;;;;;;0.25;0.22;;;;;;;;;;5090810;28;20036;-68
2020/12/24 01:02:22;;;;;;;0.73;0.40;;;;;;;;;;5091147;28;20020;-68
2020/12/24 01:04:48;;;;;;;0.55;0.20;;;;;;;;;;5090136;28;20475;-68
2020/12/24 01:07:14;;;;;;;0.38;0.30;;;;;;;;;;5091718;28;20063;-68
2020/12/24 01:09:40;;;;;;;0.20;0.20;;;;;;;;;;5091001;28;20409;-68
2020/12/24 01:12:07;;;;;;;1.00;0.40;;;;;;;;;;5091056;28;20099;-68
2020/12/24 01:14:33;;;;;;;0.30;0.20;;;;;;;;;;5090926;28;20077;-68
2020/12/24 01:16:59;;;;;;;1.15;0.40;;;;;;;;;;5090390;28;20115;-68
2020/12/24 01:19:25;;;;;;;0.30;0.25;;;;;;;;;;5090967;28;20032;-68
2020/12/24 01:21:52;;;;;;;0.95;0.60;;;;;;;;;;5090471;28;20482;-68
2020/12/24 01:24:18;;;;;;;0.63;0.50;;;;;;;;;;5090916;28;20474;-68
2020/12/24 01:26:47;;;;;;;0.40;0.30;;;;;;;;;;5090086;28;20089;-68
2020/12/24 01:29:13;;;;;;;0.20;0.20;;;;;;;;;;5075797;28;20055;-68
2020/12/24 01:31:46;;;;;;;1.95;0.57;;;;;;;;;;5070140;28;20040;-68
2020/12/24 01:34:13;;;;;;;1.02;0.40;;;;;;;;;;5070290;28;20028;-68
2020/12/24 01:36:39;;;;;;;0.40;0.40;;;;;;;;;;5066689;28;20431;-68
2020/12/24 01:39:05;;;;;;;0.73;0.43;;;;;;;;;;5050506;28;20486;-68
2020/12/24 01:41:32;;;;;;;0.63;0.60;;;;;;;;;;5050511;28;20032;-68
2020/12/24 01:43:58;;;;;;;0.57;0.40;;;;;;;;;;5049530;28;20029;-68
2020/12/24 01:46:24;;;;;;;0.38;0.38;;;;;;;;;;5049430;28;20033;-68
2020/12/24 01:48:50;;;;;;;1.08;0.50;;;;;;;;;;5049615;28;20033;-68
2020/12/24 01:51:27;;;;;;;1.30;0.40;;;;;;;;;;5050305;28;20079;-68
2020/12/24 01:53:53;;;;;;;0.30;0.30;;;;;;;;;;5049351;28;20036;-68
2020/12/24 01:56:20;;;;;;;0.50;0.28;;;;;;;;;;5049969;28;20031;-68
2020/12/24 01:58:46;;;;;;;0.55;0.30;;;;;;;;;;5049411;28;20029;-68
2020/12/24 02:01:12;;;;;;;0.38;0.32;;;;;;;;;;5050234;28;20057;-68
2020/12/24 02:03:38;;;;;;;0.55;0.55;;;;;;;;;;5049603;28;20024;-69
2020/12/24 02:06:04;;;;;;;0.32;0.30;;;;;;;;;;5049464;28;20028;-68
2020/12/24 02:08:30;;;;;;;0.35;0.10;;;;;;;;;;5050048;28;20037;-68
2020/12/24 02:10:57;;;;;;;0.43;0.43;;;;;;;;;;5049306;28;20028;-68
2020/12/24 02:13:23;;;;;;;0.52;0.30;;;;;;;;;;5049479;28;20118;-68
2020/12/24 02:15:49;;;;;;;0.65;0.40;;;;;;;;;;5049037;28;20159;-68
2020/12/24 02:18:15;;;;;;;2.97;0.50;;;;;;;;;;5064954;28;20032;-68
2020/12/24 02:20:44;;;;;;;0.40;0.30;;;;;;;;;;5069439;28;20020;-68
2020/12/24 02:23:10;;;;;;;0.75;0.75;;;;;;;;;;5069496;28;20031;-68
2020/12/24 02:25:37;;;;;;;0.38;0.35;;;;;;;;;;5069665;28;20564;-68
2020/12/24 02:28:04;;;;;;;1.23;0.98;;;;;;;;;;5069198;28;20064;-68
2020/12/24 02:30:30;;;;;;;2.00;1.40;;;;;;;;;;5069679;28;20052;-68
2020/12/24 02:32:56;;;;;;;3.83;1.80;;;;;;;;;;5068828;28;20063;-68
2020/12/24 02:35:22;;;;;;;2.78;1.60;;;;;;;;;;5069181;28;20403;-68
2020/12/24 02:37:48;;;;;;;1.30;0.90;;;;;;;;;;5069006;28;20397;-68
2020/12/24 02:40:14;;;;;;;0.88;0.88;;;;;;;;;;5070064;28;20111;-68
2020/12/24 02:42:40;;;;;;;1.80;0.50;;;;;;;;;;5069085;28;20036;-68
2020/12/24 02:45:07;;;;;;;0.40;0.40;;;;;;;;;;5069174;28;20020;-68
2020/12/24 02:47:36;;;;;;;0.73;0.60;;;;;;;;;;5064087;28;20029;-68
2020/12/24 02:50:03;;;;;;;0.77;0.50;;;;;;;;;;5049161;28;20094;-68
2020/12/24 02:52:29;;;;;;;1.95;0.85;;;;;;;;;;5049355;28;20025;-68
2020/12/24 02:54:55;;;;;;;1.23;0.82;;;;;;;;;;5048683;28;20040;-68
2020/12/24 02:57:21;;;;;;;1.30;1.17;;;;;;;;;;5051607;28;20061;-68
2020/12/24 02:59:47;;;;;;;0.60;0.60;;;;;;;;;;5052930;28;20036;-68
2020/12/24 03:02:13;;;;;;;0.90;0.50;;;;;;;;;;5053606;28;20468;-68
2020/12/24 03:04:40;;;;;;;1.13;0.47;;;;;;;;;;5053116;28;20586;-68
2020/12/24 03:07:06;;;;;;;0.47;0.38;;;;;;;;;;5052919;28;20391;-68
2020/12/24 03:09:32;;;;;;;2.95;0.40;;;;;;;;;;5053320;28;20033;-68
2020/12/24 03:11:58;;;;;;;3.20;0.35;;;;;;;;;;5052760;28;20040;-68
2020/12/24 03:14:24;;;;;;;0.47;0.40;;;;;;;;;;5053261;28;20484;-68
2020/12/24 03:16:50;;;;;;;0.40;0.40;;;;;;;;;;5053034;28;20051;-68
2020/12/24 03:19:16;;;;;;;0.55;0.40;;;;;;;;;;5053501;28;20091;-68
2020/12/24 03:21:42;;;;;;;0.28;0.28;;;;;;;;;;5052728;28;20025;-68
2020/12/24 03:24:08;;;;;;;0.63;0.52;;;;;;;;;;5052764;28;20032;-68
2020/12/24 03:26:34;;;;;;;0.60;0.30;;;;;;;;;;5053148;28;20471;-68
2020/12/24 03:29:00;;;;;;;1.00;0.40;;;;;;;;;;5052093;28;20045;-68
2020/12/24 03:31:27;;;;;;;0.10;0.10;;;;;;;;;;5053260;28;20086;-68
2020/12/24 03:33:54;;;;;;;0.70;0.63;;;;;;;;;;5052068;28;20103;-68
2020/12/24 03:36:20;;;;;;;0.45;0.45;;;;;;;;;;5052930;28;20093;-68
2020/12/24 03:38:46;;;;;;;0.82;0.50;;;;;;;;;;5072201;28;20108;-68
2020/12/24 03:41:12;;;;;;;0.40;0.38;;;;;;;;;;5072830;28;20024;-68
2020/12/24 03:43:38;;;;;;;0.40;0.40;;;;;;;;;;5072407;28;20039;-68
2020/12/24 03:46:04;;;;;;;0.85;0.25;;;;;;;;;;5072299;28;20111;-68
2020/12/24 03:48:30;;;;;;;0.55;0.30;;;;;;;;;;5072688;28;20032;-68
2020/12/24 03:50:56;;;;;;;0.63;0.30;;;;;;;;;;5072220;28;20107;-68
2020/12/24 03:53:23;;;;;;;0.75;0.43;;;;;;;;;;5072461;28;20036;-68
2020/12/24 03:55:49;;;;;;;0.20;0.20;;;;;;;;;;5071829;28;20379;-68
2020/12/24 03:58:15;;;;;;;0.45;0.40;;;;;;;;;;5072269;28;20024;-68
2020/12/24 04:00:41;;;;;;;0.60;0.43;;;;;;;;;;5072288;28;20031;-68
2020/12/24 04:03:07;;;;;;;0.15;0.15;;;;;;;;;;5071609;28;20475;-68
2020/12/24 04:05:33;;;;;;;1.00;0.35;;;;;;;;;;5072226;28;20028;-68
2020/12/24 04:07:59;;;;;;;0.45;0.30;;;;;;;;;;5071203;28;20421;-68
2020/12/24 04:10:26;;;;;;;0.47;0.35;;;;;;;;;;5072356;28;20085;-68
2020/12/24 04:12:52;;;;;;;0.40;0.40;;;;;;;;;;5071522;28;20112;-68
2020/12/24 04:15:18;;;;;;;0.90;0.22;;;;;;;;;;5071888;28;20037;-68
2020/12/24 04:17:44;;;;;;;0.70;0.40;;;;;;;;;;5060359;28;20510;-68
2020/12/24 04:20:10;;;;;;;0.90;0.30;;;;;;;;;;5051887;28;20029;-68
2020/12/24 04:22:36;;;;;;;2.00;0.40;;;;;;;;;;5052227;28;20394;-68
2020/12/24 04:25:02;;;;;;;0.75;0.47;;;;;;;;;;5051221;28;20490;-68
2020/12/24 04:27:29;;;;;;;0.52;0.30;;;;;;;;;;5052033;28;20476;-68
2020/12/24 04:29:55;;;;;;;0.40;0.40;;;;;;;;;;5051126;28;20060;-68
2020/12/24 04:32:21;;;;;;;0.85;0.45;;;;;;;;;;5051698;28;20033;-68
2020/12/24 04:34:47;;;;;;;0.45;0.40;;;;;;;;;;5050742;28;20083;-68
2020/12/24 04:37:17;;;;;;;0.20;0.20;;;;;;;;;;5052187;28;20029;-68
2020/12/24 04:39:43;;;;;;;0.47;0.35;;;;;;;;;;5051038;28;20505;-68
2020/12/24 04:42:10;;;;;;;0.15;0.15;;;;;;;;;;5051627;28;20102;-68
2020/12/24 04:44:36;;;;;;;0.30;0.30;;;;;;;;;;5051674;28;20116;-68
2020/12/24 04:47:02;;;;;;;1.02;0.60;;;;;;;;;;5052020;28;20098;-68
2020/12/24 04:49:31;;;;;;;0.45;0.43;;;;;;;;;;5071578;28;20453;-68
2020/12/24 04:51:57;;;;;;;1.58;0.40;;;;;;;;;;5070860;28;20498;-68
2020/12/24 04:54:23;;;;;;;0.95;0.20;;;;;;;;;;5071174;28;20067;-68
2020/12/24 04:56:49;;;;;;;0.70;0.40;;;;;;;;;;5070288;28;20029;-68
2020/12/24 04:59:18;;;;;;;1.60;0.30;;;;;;;;;;5071485;28;20035;-68
2020/12/24 05:01:49;;;;;;;2.05;0.35;;;;;;;;;;5070926;28;20028;-68
2020/12/24 05:04:17;;;;;;;0.47;0.45;;;;;;;;;;5071096;28;20102;-68
2020/12/24 05:06:44;;;;;;;0.63;0.63;;;;;;;;;;5070269;28;20422;-68
2020/12/24 05:09:10;;;;;;;0.32;0.20;;;;;;;;;;5071110;28;20051;-68
2020/12/24 05:11:37;;;;;;;0.30;0.30;;;;;;;;;;5071020;28;20040;-68
2020/12/24 05:14:22;;;;;;;0.88;0.50;;;;;;;;;;5070289;28;20039;-68
2020/12/24 05:16:57;;;;;;;0.20;0.20;;;;;;;;;;5070049;28;20028;-68
2020/12/24 05:19:24;;;;;;;0.57;0.38;;;;;;;;;;5070630;28;20123;-68
2020/12/24 05:21:50;;;;;;;0.80;0.80;;;;;;;;;;5069612;28;20021;-68
2020/12/24 05:24:23;;;;;;;0.30;0.30;;;;;;;;;;5070664;28;20063;-68
2020/12/24 05:26:49;;;;;;;0.38;0.22;;;;;;;;;;5069852;28;20535;-68
2020/12/24 05:29:15;;;;;;;0.40;0.40;;;;;;;;;;5070746;28;20127;-68
2020/12/24 05:31:41;;;;;;;0.63;0.30;;;;;;;;;;5070419;28;20403;-68
2020/12/24 05:34:07;;;;;;;0.20;0.20;;;;;;;;;;5070182;28;20028;-68
2020/12/24 05:36:33;;;;;;;0.15;0.15;;;;;;;;;;5067721;28;20494;-68
2020/12/24 05:38:59;;;;;;;0.57;0.40;;;;;;;;;;5049847;28;20456;-68
2020/12/24 05:41:33;;;;;;;0.52;0.43;;;;;;;;;;5050593;28;20025;-68
2020/12/24 05:44:00;;;;;;;0.57;0.45;;;;;;;;;;5049978;28;20025;-68
2020/12/24 05:46:27;;;;;;;0.30;0.22;;;;;;;;;;5050255;28;20025;-68
2020/12/24 05:48:53;;;;;;;0.30;0.28;;;;;;;;;;5049686;28;20447;-68
2020/12/24 05:51:19;;;;;;;0.57;0.57;;;;;;;;;;5050432;28;20493;-68
2020/12/24 05:53:46;;;;;;;0.93;0.75;;;;;;;;;;5049545;28;20075;-68
2020/12/24 05:56:24;;;;;;;0.60;0.40;;;;;;;;;;5049939;28;20029;-68
2020/12/24 05:58:51;;;;;;;0.60;0.20;;;;;;;;;;5049756;28;20471;-68
2020/12/24 06:01:18;;;;;;;0.52;0.47;;;;;;;;;;5050256;28;20032;-68
2020/12/24 06:04:03;;;;;;;0.50;0.40;;;;;;;;;;5049322;28;20091;-68
2020/12/24 06:06:38;;;;;;;1.05;0.50;;;;;;;;;;5049108;28;20569;-68
2020/12/24 06:09:10;;;;;;;0.20;0.20;;;;;;;;;;5049599;28;20119;-68
2020/12/24 06:11:39;;;;;;;0.30;0.30;;;;;;;;;;5050306;28;20025;-68
2020/12/24 06:14:13;;;;;;;1.17;0.40;;;;;;;;;;5049496;28;20029;-68
2020/12/24 06:16:40;;;;;;;0.82;0.47;;;;;;;;;;5051261;28;20434;-68
2020/12/24 06:19:06;;;;;;;0.63;0.40;;;;;;;;;;5069531;28;20398;-68
2020/12/24 06:21:34;;;;;;;0.93;0.30;;;;;;;;;;5069944;28;20025;-68
2020/12/24 06:24:00;;;;;;;1.50;0.20;;;;;;;;;;5068788;28;20033;-68
2020/12/24 06:26:32;;;;;;;0.20;0.20;;;;;;;;;;5069868;28;20080;-68
2020/12/24 06:29:01;;;;;;;0.85;0.57;;;;;;;;;;5081612;28;20106;-68
2020/12/24 06:31:28;;;;;;;1.55;0.50;;;;;;;;;;5089801;28;20028;-68
2020/12/24 06:33:54;;;;;;;0.38;0.32;;;;;;;;;;5088716;28;20082;-68
2020/12/24 06:36:32;;;;;;;0.47;0.47;;;;;;;;;;5089747;28;20032;-68
2020/12/24 06:38:59;;;;;;;0.47;0.30;;;;;;;;;;5089239;28;20140;-68
2020/12/24 06:41:29;;;;;;;0.32;0.20;;;;;;;;;;5089901;28;20032;-68
2020/12/24 06:43:55;;;;;;;1.98;0.55;;;;;;;;;;5088606;28;20032;-68
2020/12/24 06:46:22;;;;;;;0.90;0.30;;;;;;;;;;5089642;28;20062;-68
2020/12/24 06:49:03;;;;;;;1.85;0.73;;;;;;;;;;5073330;28;20120;-68
2020/12/24 06:51:48;;;;;;;0.98;0.40;;;;;;;;;;5069568;28;20045;-68
2020/12/24 06:54:21;;;;;;;2.50;1.33;;;;;;;;;;5069449;28;20027;-68
2020/12/24 06:56:47;;;;;;;0.80;0.50;;;;;;;;;;5068857;28;20024;-68
2020/12/24 06:59:20;;;;;;;0.63;0.30;;;;;;;;;;5069464;28;20024;-68
2020/12/24 07:02:03;;;;;;;3.40;0.50;;;;;;;;;;5085297;28;20534;-69
2020/12/24 07:04:35;;;;;;;0.57;0.47;;;;;;;;;;5072439;28;20082;-69
2020/12/24 07:07:01;;;;;;;0.70;0.55;;;;;;;;;;5078887;28;20036;-69
2020/12/24 07:09:27;;;;;;;1.67;0.45;;;;;;;;;;5085485;28;20040;-69
2020/12/24 07:11:54;;;;;;;0.73;0.73;;;;;;;;;;5085888;28;20024;-69
2020/12/24 07:14:24;;;;;;;0.90;0.60;;;;;;;;;;5085457;28;20145;-69
2020/12/24 07:16:52;;;;;;;0.98;0.70;;;;;;;;;;5085988;28;20078;-69
2020/12/24 07:19:18;;;;;;;2.50;0.80;;;;;;;;;;5086124;28;20508;-69
2020/12/24 07:21:48;;;;;;;2.13;0.57;;;;;;;;;;5083981;28;20493;-69
2020/12/24 07:24:14;;;;;;;0.98;0.77;;;;;;;;;;5085299;28;20016;-69
2020/12/24 07:26:42;;;;;;;3.42;1.48;;;;;;;;;;5086764;28;20035;-69
2020/12/24 07:29:09;;;;;;;1.42;0.80;;;;;;;;;;5077230;28;20051;-71
2020/12/24 07:31:37;;;;;;;1.25;0.60;;;;;;;;;;5065574;28;20035;-70
2020/12/24 07:34:03;;;;;;;0.88;0.82;;;;;;;;;;5063310;28;20119;-70
2020/12/24 07:36:30;;;;;;;1.13;0.80;;;;;;;;;;5066999;28;20036;-70
2020/12/24 07:38:56;;;;;;;1.52;0.88;;;;;;;;;;5081988;28;20048;-71
2020/12/24 07:41:22;;;;;;;1.30;0.88;;;;;;;;;;5085255;28;20498;-69
2020/12/24 07:43:48;;;;;;;3.15;1.88;;;;;;;;;;5085529;28;20020;-70
2020/12/24 07:46:16;;;;;;;2.03;1.73;;;;;;;;;;5069990;28;20025;-70
2020/12/24 07:48:43;;;;;;;3.17;1.90;;;;;;;;;;5067015;28;20471;-70
2020/12/24 07:51:10;;;;;;;1.92;1.77;;;;;;;;;;5086118;28;20535;-70
2020/12/24 07:53:36;;;;;;;2.38;1.77;;;;;;;;;;5088127;28;20248;-70
2020/12/24 07:56:06;;;;;;;1.95;1.58;;;;;;;;;;5075069;28;20712;-68
2020/12/24 07:58:32;;;;;;;2.90;1.60;;;;;;;;;;5068966;28;20027;-70
2020/12/24 08:01:02;;;;;;;2.28;1.20;;;;;;;;;;5087267;28;20035;-70
2020/12/24 08:03:28;;;;;;;1.35;1.20;;;;;;;;;;5088127;28;20089;-70
2020/12/24 08:06:02;;;;;;;3.67;1.92;;;;;;;;;;5073233;28;20029;-70
2020/12/24 08:08:31;;;;;;;5.65;1.20;;;;;;;;;;5068771;28;20033;-70
2020/12/24 08:10:57;;;;;;;1.67;1.40;;;;;;;;;;5084361;28;20068;-70
2020/12/24 08:13:24;;;;;;;4.10;1.65;;;;;;;;;;5067735;28;20063;-70
2020/12/24 08:15:51;;;;;;;1.85;1.55;;;;;;;;;;5073121;28;20062;-70
2020/12/24 08:18:21;;;;;;;2.17;1.50;;;;;;;;;;5087730;28;20321;-70
2020/12/24 08:20:47;;;;;;;2.65;1.80;;;;;;;;;;5087135;28;20035;-70
2020/12/24 08:23:17;;;;;;;1.55;1.27;;;;;;;;;;5088513;28;20028;-70
2020/12/24 08:25:47;;;;;;;1.42;1.20;;;;;;;;;;5088201;28;20032;-70
2020/12/24 08:28:14;;;;;;;3.90;1.35;;;;;;;;;;5089647;28;20517;-69
2020/12/24 08:30:44;;;;;;;1.75;1.33;;;;;;;;;;5087375;28;20475;-71
2020/12/24 08:33:10;;;;;;;2.95;1.45;;;;;;;;;;5086516;28;20099;-73
2020/12/24 08:35:36;;;;;;;4.45;1.73;;;;;;;;;;5090410;28;20031;-70
2020/12/24 08:38:15;;;;;;;2.05;1.40;;;;;;;;;;5104851;28;20062;-70
2020/12/24 08:40:41;;;;;;;3.85;1.67;;;;;;;;;;5110557;28;20395;-70
2020/12/24 08:43:08;;;;;;;1.65;1.20;;;;;;;;;;5111230;28;20337;-70
2020/12/24 08:45:42;;;;;;;1.65;1.42;;;;;;;;;;5111386;28;20060;-71
2020/12/24 08:48:08;;;;;;;;;;;;;;;;;;5092287;28;20072;-71
2020/12/24 08:50:35;;;;;;;1.13;0.95;;;;;;;;;;5090645;28;19986;-70
2020/12/24 08:53:05;;;;;;;3.08;2.15;;;;;;;;;;5090306;28;20035;-70
2020/12/24 08:55:31;;;;;;;1.65;1.45;;;;;;;;;;5090685;28;20020;-70
2020/12/24 08:57:57;;;;;;;2.80;1.30;;;;;;;;;;5089751;28;20552;-70
2020/12/24 09:00:24;;;;;;;1.50;1.15;;;;;;;;;;5089524;28;20031;-70
2020/12/24 09:02:50;;;;;;;3.30;1.67;;;;;;;;;;5087534;28;20102;-70
2020/12/24 09:05:24;;;;;;;1.23;1.10;;;;;;;;;;5090976;28;20029;-71
2020/12/24 09:07:50;;;;;;;2.58;2.35;;;;;;;;;;5089425;28;20028;-71
2020/12/24 09:10:26;;;;;;;1.33;1.17;;;;;;;;;;5098767;28;20040;-71
2020/12/24 09:12:56;;;;;;;2.03;1.30;;;;;;;;;;5069321;28;20028;-70
2020/12/24 09:15:25;;;;;;;2.45;1.52;;;;;;;;;;5069945;28;20107;-69
2020/12/24 09:17:52;;;;;;;1.92;1.73;;;;;;;;;;5068132;28;20016;-71
2020/12/24 09:20:28;;;;;;;4.28;1.23;;;;;;;;;;5071565;28;20504;-69
2020/12/24 09:22:58;;;;;;;2.47;1.38;;;;;;;;;;5089311;28;20028;-70
2020/12/24 09:25:31;;;;;;;1.52;1.38;;;;;;;;;;5090186;28;20032;-70
2020/12/24 09:27:58;;;;;;;2.35;1.33;;;;;;;;;;5089339;28;20074;-70
2020/12/24 09:30:24;;;;;;;3.15;1.67;;;;;;;;;;5090361;28;20032;-70
2020/12/24 09:32:57;;;;;;;2.78;1.20;;;;;;;;;;5089311;28;20467;-70
2020/12/24 09:35:24;;;;;;;1.67;1.33;;;;;;;;;;5089647;28;20031;-70
2020/12/24 09:37:50;;;;;;;1.60;1.50;;;;;;;;;;5089221;28;20035;-70
2020/12/24 09:40:16;;;;;;;2.28;1.73;;;;;;;;;;5089004;28;20028;-69
2020/12/24 09:42:43;;;;;;;3.20;1.55;;;;;;;;;;5087793;28;20020;-71
2020/12/24 09:45:09;;;;;;;1.88;1.10;;;;;;;;;;5088933;28;20101;-71
2020/12/24 09:47:35;;;;;;;1.63;1.52;;;;;;;;;;5090004;28;20028;-71
2020/12/24 09:50:01;;;;;;;2.15;1.60;;;;;;;;;;5088799;28;20097;-71
2020/12/24 09:52:27;;;;;;;1.40;1.30;;;;;;;;;;5089828;28;20276;-70
2020/12/24 09:54:53;;;;;;;8.68;1.63;;;;;;;;;;5080879;28;20038;-69
2020/12/24 09:57:19;;;;;;;2.30;1.60;;;;;;;;;;5089645;28;20219;-69
2020/12/24 09:59:45;;;;;;;2.60;2.35;;;;;;;;;;5088562;28;20082;-69
2020/12/24 10:02:11;;;;;;;3.08;1.85;;;;;;;;;;5089408;28;20031;-71
2020/12/24 10:04:38;;;;;;;6.65;1.13;;;;;;;;;;5088463;28;20486;-69
2020/12/24 10:07:04;;;;;;;1.27;1.10;;;;;;;;;;5087897;28;20031;-69
2020/12/24 10:09:30;;;;;;;2.58;0.90;;;;;;;;;;5089293;28;20038;-69
2020/12/24 10:11:56;;;;;;;1.35;1.25;;;;;;;;;;5088745;28;20034;-69
2020/12/24 10:14:22;;;;;;;1.85;1.15;;;;;;;;;;5088820;28;20059;-69
2020/12/24 10:16:48;;;;;;;1.63;1.35;;;;;;;;;;5072196;28;20052;-70
2020/12/24 10:19:14;;;;;;;4.75;1.52;;;;;;;;;;5049838;28;20032;-69
2020/12/24 10:21:40;;;;;;;1.70;1.42;;;;;;;;;;5068469;28;20479;-69
2020/12/24 10:24:07;;;;;;;3.63;2.35;;;;;;;;;;5068063;28;20037;-69
2020/12/24 10:26:33;;;;;;;2.60;1.17;;;;;;;;;;5069063;28;20028;-69
2020/12/24 10:28:59;;;;;;;1.55;1.13;;;;;;;;;;5067807;28;20099;-69
2020/12/24 10:31:25;;;;;;;2.97;1.80;;;;;;;;;;5074112;28;20028;-69
2020/12/24 10:33:51;;;;;;;3.35;1.17;;;;;;;;;;5093987;28;20031;-69
2020/12/24 10:36:23;;;;;;;1.05;0.95;;;;;;;;;;5088480;28;20437;-69
2020/12/24 10:38:49;;;;;;;0.90;0.68;;;;;;;;;;5108341;28;20026;-69
2020/12/24 10:41:16;;;;;;;3.15;1.50;;;;;;;;;;5108843;28;20034;-68
2020/12/24 10:43:42;;;;;;;4.50;2.55;;;;;;;;;;5108470;28;20036;-69
2020/12/24 10:46:08;;;;;;;2.15;0.98;;;;;;;;;;5109005;28;20028;-69
2020/12/24 10:48:34;;;;;;;1.10;1.10;;;;;;;;;;5109222;28;20397;-69
2020/12/24 10:51:01;;;;;;;1.30;1.13;;;;;;;;;;5096029;28;20036;-69
2020/12/24 10:53:27;;;;;;;3.28;1.20;;;;;;;;;;5068662;28;20024;-69
2020/12/24 10:55:53;;;;;;;2.83;0.82;;;;;;;;;;5078063;28;20078;-69
2020/12/24 10:58:19;;;;;;;1.15;0.90;;;;;;;;;;5089058;28;20029;-69
2020/12/24 11:00:45;;;;;;;1.88;1.42;;;;;;;;;;5087701;28;20039;-69
2020/12/24 11:03:11;;;;;;;1.70;0.52;;;;;;;;;;5088198;28;20051;-69
2020/12/24 11:05:37;;;;;;;1.65;1.10;;;;;;;;;;5087718;28;20082;-69
2020/12/24 11:08:04;;;;;;;4.07;1.73;;;;;;;;;;5087842;28;20402;-69
2020/12/24 11:10:30;;;;;;;1.35;1.05;;;;;;;;;;5088712;28;20024;-69
2020/12/24 11:12:56;;;;;;;0.98;0.95;;;;;;;;;;5087771;28;20139;-70
2020/12/24 11:15:22;;;;;;;1.45;1.02;;;;;;;;;;5088417;28;20077;-70
2020/12/24 11:17:48;;;;;;;1.42;0.80;;;;;;;;;;5088710;28;20039;-70
2020/12/24 11:20:14;;;;;;;2.85;1.20;;;;;;;;;;5091454;28;20039;-70
2020/12/24 11:22:41;;;;;;;1.70;1.23;;;;;;;;;;5084394;28;20024;-70
2020/12/24 11:25:07;;;;;;;2.95;1.38;;;;;;;;;;5090478;28;20059;-70
2020/12/24 11:27:33;;;;;;;3.22;1.95;;;;;;;;;;5092496;28;20133;-70
2020/12/24 11:29:59;;;;;;;1.00;0.90;;;;;;;;;;5089393;28;20407;-71
2020/12/24 11:32:25;;;;;;;1.40;1.30;;;;;;;;;;5071485;28;20103;-75
2020/12/24 11:34:51;;;;;;;1.10;0.90;;;;;;;;;;5072603;28;20044;-69
2020/12/24 11:37:17;;;;;;;2.67;0.77;;;;;;;;;;5092582;28;20032;-69
2020/12/24 11:39:43;;;;;;;2.05;1.33;;;;;;;;;;5091826;28;20035;-69
2020/12/24 11:42:12;;;;;;;2.15;1.00;;;;;;;;;;5090810;28;20382;-69
2020/12/24 11:44:38;;;;;;;2.78;1.70;;;;;;;;;;5072387;28;20039;-69
2020/12/24 11:47:04;;;;;;;3.38;0.90;;;;;;;;;;5072179;28;20032;-69
2020/12/24 11:49:30;;;;;;;2.05;0.82;;;;;;;;;;5072374;28;20095;-69
2020/12/24 11:52:01;;;;;;;1.23;1.02;;;;;;;;;;5072032;28;20020;-69
2020/12/24 11:54:27;;;;;;;1.25;0.70;;;;;;;;;;5091928;28;20427;-69
2020/12/24 11:56:53;;;;;;;1.98;1.27;;;;;;;;;;5092283;28;20020;-69
2020/12/24 11:59:19;;;;;;;1.88;1.73;;;;;;;;;;5092565;28;20089;-69
2020/12/24 12:01:49;;;;;;;1.13;0.93;;;;;;;;;;5093829;28;20024;-69
2020/12/24 12:04:15;;;;;;;0.73;0.70;;;;;;;;;;5092494;28;20024;-69
2020/12/24 12:06:41;;;;;;;1.25;0.63;;;;;;;;;;5092213;28;20028;-69
2020/12/24 12:09:07;;;;;;;1.33;0.93;;;;;;;;;;5091753;28;20043;-69
2020/12/24 12:11:36;;;;;;;1.55;0.77;;;;;;;;;;5092146;28;20296;-69
2020/12/24 12:14:02;;;;;;;1.00;0.80;;;;;;;;;;5091128;28;20138;-69
2020/12/24 12:16:28;;;;;;;1.67;1.02;;;;;;;;;;5092265;28;20028;-69
2020/12/24 12:18:54;;;;;;;1.40;0.75;;;;;;;;;;5091438;28;20417;-69
2020/12/24 12:21:21;;;;;;;1.50;1.40;;;;;;;;;;5091912;28;20039;-69
2020/12/24 12:23:48;;;;;;;1.00;0.80;;;;;;;;;;5090789;28;20028;-69
2020/12/24 12:26:15;;;;;;;2.05;0.88;;;;;;;;;;5092088;28;20424;-69
2020/12/24 12:28:46;;;;;;;2.03;0.70;;;;;;;;;;5090847;28;20058;-69
2020/12/24 12:31:16;;;;;;;0.85;0.47;;;;;;;;;;5091090;28;20043;-69
2020/12/24 12:33:42;;;;;;;1.75;0.88;;;;;;;;;;5090045;28;20519;-69
2020/12/24 12:36:08;;;;;;;1.85;0.80;;;;;;;;;;5091032;28;20095;-69
2020/12/24 12:38:35;;;;;;;1.13;0.70;;;;;;;;;;5072230;28;20374;-69
2020/12/24 12:41:01;;;;;;;5.15;1.60;;;;;;;;;;5070364;28;20028;-69
2020/12/24 12:43:27;;;;;;;1.08;0.60;;;;;;;;;;5071081;28;20028;-69
2020/12/24 12:45:53;;;;;;;0.60;0.60;;;;;;;;;;5070140;28;20028;-69
2020/12/24 12:48:19;;;;;;;2.13;0.82;;;;;;;;;;5091038;28;20114;-69
2020/12/24 12:50:45;;;;;;;1.02;0.90;;;;;;;;;;5076873;28;20220;-69
2020/12/24 12:53:11;;;;;;;1.50;0.90;;;;;;;;;;5084924;28;20550;-69
2020/12/24 12:55:37;;;;;;;1.83;0.75;;;;;;;;;;5079023;28;20092;-69
2020/12/24 12:58:03;;;;;;;0.60;0.60;;;;;;;;;;5082362;28;20068;-69
2020/12/24 13:00:29;;;;;;;0.80;0.80;;;;;;;;;;5077995;28;20025;-72
2020/12/24 13:02:55;;;;;;;1.42;0.60;;;;;;;;;;5079630;28;20529;-71
2020/12/24 13:05:21;;;;;;;1.48;0.80;;;;;;;;;;5083549;28;20066;-71
2020/12/24 13:07:48;;;;;;;1.30;1.20;;;;;;;;;;5071898;28;20435;-72
2020/12/24 13:10:14;;;;;;;1.17;1.08;;;;;;;;;;5090520;28;20210;-71
2020/12/24 13:12:40;;;;;;;1.48;0.63;;;;;;;;;;5090030;28;20051;-71
2020/12/24 13:15:06;;;;;;;0.88;0.70;;;;;;;;;;5072184;28;20029;-71
2020/12/24 13:17:32;;;;;;;1.38;1.10;;;;;;;;;;5071345;28;20020;-70
2020/12/24 13:19:58;;;;;;;4.50;0.93;;;;;;;;;;5089108;28;20031;-71
2020/12/24 13:22:24;;;;;;;1.67;0.70;;;;;;;;;;5090139;28;20024;-70
2020/12/24 13:24:50;;;;;;;2.10;1.00;;;;;;;;;;5089671;28;20103;-71
2020/12/24 13:27:16;;;;;;;3.42;0.70;;;;;;;;;;5090795;28;20028;-70
2020/12/24 13:29:43;;;;;;;1.75;0.80;;;;;;;;;;5089836;28;20331;-71
2020/12/24 13:32:09;;;;;;;0.65;0.60;;;;;;;;;;5090353;28;20031;-71
2020/12/24 13:34:35;;;;;;;1.23;0.60;;;;;;;;;;5090219;28;20077;-71
2020/12/24 13:37:01;;;;;;;1.20;1.08;;;;;;;;;;5089096;28;20478;-71
2020/12/24 13:39:28;;;;;;;0.93;0.60;;;;;;;;;;5090237;28;20028;-71
2020/12/24 13:41:54;;;;;;;1.13;1.02;;;;;;;;;;5089016;28;20047;-71
2020/12/24 13:44:21;;;;;;;0.70;0.45;;;;;;;;;;5090715;28;20352;-70
2020/12/24 13:46:51;;;;;;;1.92;0.70;;;;;;;;;;5089455;28;20028;-70
2020/12/24 13:49:17;;;;;;;1.02;0.70;;;;;;;;;;5092956;28;20028;-69
2020/12/24 13:51:43;;;;;;;1.27;0.88;;;;;;;;;;5089073;28;20032;-69
2020/12/24 13:54:09;;;;;;;1.33;0.90;;;;;;;;;;5089873;28;20027;-71
2020/12/24 13:56:35;;;;;;;3.00;1.55;;;;;;;;;;5073774;28;20031;-69
2020/12/24 13:59:02;;;;;;;0.88;0.88;;;;;;;;;;5089502;28;20032;-69
2020/12/24 14:01:28;;;;;;;0.60;0.60;;;;;;;;;;5089819;28;20036;-69
2020/12/24 14:03:54;;;;;;;1.15;1.05;;;;;;;;;;5089255;28;20028;-69
2020/12/24 14:06:20;;;;;;;0.93;0.73;;;;;;;;;;5089493;28;20024;-69
2020/12/24 14:08:46;;;;;;;1.45;0.50;;;;;;;;;;5089134;28;20032;-69
2020/12/24 14:11:17;;;;;;;1.67;0.95;;;;;;;;;;5089687;28;20393;-69
2020/12/24 14:13:43;;;;;;;2.47;0.52;;;;;;;;;;5089146;28;20092;-69
2020/12/24 14:16:09;;;;;;;2.45;0.60;;;;;;;;;;5090052;28;20036;-69
2020/12/24 14:18:35;;;;;;;1.20;0.50;;;;;;;;;;5089715;28;20028;-69
2020/12/24 14:21:01;;;;;;;1.55;0.68;;;;;;;;;;5088845;28;20561;-69
2020/12/24 14:23:28;;;;;;;0.85;0.60;;;;;;;;;;5089542;28;20406;-69
2020/12/24 14:25:54;;;;;;;0.60;0.60;;;;;;;;;;5088972;28;20031;-69
2020/12/24 14:28:20;;;;;;;5.15;1.00;;;;;;;;;;5089639;28;20040;-69
2020/12/24 14:30:46;;;;;;;0.98;0.77;;;;;;;;;;5089041;28;20036;-69
2020/12/24 14:33:13;;;;;;;0.75;0.60;;;;;;;;;;5089537;28;20028;-70
2020/12/24 14:35:39;;;;;;;3.75;0.63;;;;;;;;;;5088626;28;20435;-72
2020/12/24 14:38:05;;;;;;;1.73;0.63;;;;;;;;;;5089090;28;20028;-69
2020/12/24 14:40:31;;;;;;;1.00;0.65;;;;;;;;;;5078363;28;20140;-69
2020/12/24 14:42:57;;;;;;;1.02;0.63;;;;;;;;;;5068259;28;20037;-69